sensor_id;sensor_type;location;lat;lon;timestamp;temperature;humidity
33382;DHT22;21342;48.786;9.166;2022-07-01T00:00:12;17.40;99.90
33382;DHT22;21342;48.786;9.166;2022-07-01T00:02:39;17.50;99.90
33382;DHT22;21342;48.786;9.166;2022-07-01T00:05:07;18.00;99.90
33382;DHT22;21342;48.786;9.166;2022-07-01T00:07:35;18.10;99.90
33382;DHT22;21342;48.786;9.166;2022-07-01T00:10:02;17.70;99.90
33382;DHT22;21342;48.786;9.166;2022-07-01T00:12:30;17.50;99.90
33382;DHT22;21342;48.786;9.166;2022-07-01T00:14:58;17.50;99.90
33382;DHT22;21342;48.786;9.166;2022-07-01T00:17:25;17.40;99.90
33382;DHT22;21342;48.786;9.166;2022-07-01T00:19:52;17.20;99.90
33382;DHT22;21342;48.786;9.166;2022-07-01T00:22:20;17.10;99.90
33382;DHT22;21342;48.786;9.166;2022-07-01T00:24:47;17.10;99.90
33382;DHT22;21342;48.786;9.166;2022-07-01T00:27:14;17.30;99.90
33382;DHT22;21342;48.786;9.166;2022-07-01T00:29:41;17.50;99.90
33382;DHT22;21342;48.786;9.166;2022-07-01T00:32:10;17.40;99.90
33382;DHT22;21342;48.786;9.166;2022-07-01T00:34:37;17.30;99.90
33382;DHT22;21342;48.786;9.166;2022-07-01T00:37:05;17.30;99.90
33382;DHT22;21342;48.786;9.166;2022-07-01T00:39:32;17.40;99.90
33382;DHT22;21342;48.786;9.166;2022-07-01T00:42:01;17.20;99.90
33382;DHT22;21342;48.786;9.166;2022-07-01T00:44:30;17.20;99.90
33382;DHT22;21342;48.786;9.166;2022-07-01T00:47:00;17.10;99.90
33382;DHT22;21342;48.786;9.166;2022-07-01T00:49:29;16.80;99.90
33382;DHT22;21342;48.786;9.166;2022-07-01T00:51:57;16.80;99.90
33382;DHT22;21342;48.786;9.166;2022-07-01T00:54:25;16.70;99.90
33382;DHT22;21342;48.786;9.166;2022-07-01T00:56:53;16.60;99.90
33382;DHT22;21342;48.786;9.166;2022-07-01T00:59:20;16.50;99.90
33382;DHT22;21342;48.786;9.166;2022-07-01T01:01:47;16.70;99.90
33382;DHT22;21342;48.786;9.166;2022-07-01T01:04:15;16.70;99.90
33382;DHT22;21342;48.786;9.166;2022-07-01T01:06:43;16.90;99.90
33382;DHT22;21342;48.786;9.166;2022-07-01T01:09:10;17.60;99.90
33382;DHT22;21342;48.786;9.166;2022-07-01T01:11:38;17.40;99.90
33382;DHT22;21342;48.786;9.166;2022-07-01T01:14:05;17.40;99.90
33382;DHT22;21342;48.786;9.166;2022-07-01T01:16:33;17.40;99.90
33382;DHT22;21342;48.786;9.166;2022-07-01T01:19:04;17.00;99.90
33382;DHT22;21342;48.786;9.166;2022-07-01T01:21:33;16.70;99.90
33382;DHT22;21342;48.786;9.166;2022-07-01T01:24:00;16.90;99.90
33382;DHT22;21342;48.786;9.166;2022-07-01T01:26:28;17.10;99.90
33382;DHT22;21342;48.786;9.166;2022-07-01T01:28:55;17.40;99.90
33382;DHT22;21342;48.786;9.166;2022-07-01T01:31:28;17.10;99.90
33382;DHT22;21342;48.786;9.166;2022-07-01T01:33:56;17.10;99.90
33382;DHT22;21342;48.786;9.166;2022-07-01T01:36:23;17.30;99.90
33382;DHT22;21342;48.786;9.166;2022-07-01T01:38:52;17.00;99.90
33382;DHT22;21342;48.786;9.166;2022-07-01T01:41:19;16.80;99.90
33382;DHT22;21342;48.786;9.166;2022-07-01T01:43:46;16.80;99.90
33382;DHT22;21342;48.786;9.166;2022-07-01T01:46:13;16.90;99.90
33382;DHT22;21342;48.786;9.166;2022-07-01T01:48:41;16.80;99.90
33382;DHT22;21342;48.786;9.166;2022-07-01T01:51:08;16.70;99.90
33382;DHT22;21342;48.786;9.166;2022-07-01T01:53:35;17.20;99.90
33382;DHT22;21342;48.786;9.166;2022-07-01T01:56:04;17.10;99.90
33382;DHT22;21342;48.786;9.166;2022-07-01T01:58:31;17.10;99.90
33382;DHT22;21342;48.786;9.166;2022-07-01T02:00:59;16.90;99.90
33382;DHT22;21342;48.786;9.166;2022-07-01T02:03:27;17.00;99.90
33382;DHT22;21342;48.786;9.166;2022-07-01T02:05:55;17.20;99.90
33382;DHT22;21342;48.786;9.166;2022-07-01T02:08:22;17.30;99.90
33382;DHT22;21342;48.786;9.166;2022-07-01T02:10:49;17.30;99.90
33382;DHT22;21342;48.786;9.166;2022-07-01T02:13:18;17.30;99.90
33382;DHT22;21342;48.786;9.166;2022-07-01T02:15:45;17.30;99.90
33382;DHT22;21342;48.786;9.166;2022-07-01T02:18:12;17.10;99.90
33382;DHT22;21342;48.786;9.166;2022-07-01T02:20:39;17.30;99.90
33382;DHT22;21342;48.786;9.166;2022-07-01T02:23:07;17.10;99.90
33382;DHT22;21342;48.786;9.166;2022-07-01T02:25:34;17.30;99.90
33382;DHT22;21342;48.786;9.166;2022-07-01T02:28:02;17.40;99.90
33382;DHT22;21342;48.786;9.166;2022-07-01T02:30:31;17.00;99.90
33382;DHT22;21342;48.786;9.166;2022-07-01T02:33:02;16.90;99.90
33382;DHT22;21342;48.786;9.166;2022-07-01T02:35:29;17.10;99.90
33382;DHT22;21342;48.786;9.166;2022-07-01T02:37:56;17.20;99.90
33382;DHT22;21342;48.786;9.166;2022-07-01T02:40:24;17.10;99.90
33382;DHT22;21342;48.786;9.166;2022-07-01T02:42:51;17.10;99.90
33382;DHT22;21342;48.786;9.166;2022-07-01T02:45:18;17.00;99.90
33382;DHT22;21342;48.786;9.166;2022-07-01T02:47:47;17.30;99.90
33382;DHT22;21342;48.786;9.166;2022-07-01T02:50:14;17.20;99.90
33382;DHT22;21342;48.786;9.166;2022-07-01T02:52:42;16.90;99.90
33382;DHT22;21342;48.786;9.166;2022-07-01T02:55:11;17.60;99.90
33382;DHT22;21342;48.786;9.166;2022-07-01T02:57:38;18.00;99.90
33382;DHT22;21342;48.786;9.166;2022-07-01T03:00:07;17.50;99.90
33382;DHT22;21342;48.786;9.166;2022-07-01T03:02:35;17.20;99.90
33382;DHT22;21342;48.786;9.166;2022-07-01T03:05:04;17.00;99.90
33382;DHT22;21342;48.786;9.166;2022-07-01T03:07:32;16.90;99.90
33382;DHT22;21342;48.786;9.166;2022-07-01T03:10:00;16.60;99.90
33382;DHT22;21342;48.786;9.166;2022-07-01T03:12:27;16.40;99.90
33382;DHT22;21342;48.786;9.166;2022-07-01T03:14:56;16.50;99.90
33382;DHT22;21342;48.786;9.166;2022-07-01T03:17:24;16.90;99.90
33382;DHT22;21342;48.786;9.166;2022-07-01T03:19:51;16.70;99.90
33382;DHT22;21342;48.786;9.166;2022-07-01T03:22:21;16.40;99.90
33382;DHT22;21342;48.786;9.166;2022-07-01T03:24:49;16.20;99.90
33382;DHT22;21342;48.786;9.166;2022-07-01T03:27:17;16.30;99.90
33382;DHT22;21342;48.786;9.166;2022-07-01T03:29:45;16.70;99.90
33382;DHT22;21342;48.786;9.166;2022-07-01T03:32:12;16.40;99.90
33382;DHT22;21342;48.786;9.166;2022-07-01T03:34:40;16.30;99.90
33382;DHT22;21342;48.786;9.166;2022-07-01T03:37:09;16.60;99.90
33382;DHT22;21342;48.786;9.166;2022-07-01T03:39:38;16.90;99.90
33382;DHT22;21342;48.786;9.166;2022-07-01T03:42:06;16.70;99.90
33382;DHT22;21342;48.786;9.166;2022-07-01T03:44:34;17.10;99.90
33382;DHT22;21342;48.786;9.166;2022-07-01T03:47:02;16.90;99.90
33382;DHT22;21342;48.786;9.166;2022-07-01T03:49:31;16.60;99.90
33382;DHT22;21342;48.786;9.166;2022-07-01T03:51:58;16.80;99.90
33382;DHT22;21342;48.786;9.166;2022-07-01T03:54:25;16.80;99.90
33382;DHT22;21342;48.786;9.166;2022-07-01T03:57:01;17.10;99.90
33382;DHT22;21342;48.786;9.166;2022-07-01T03:59:30;16.90;99.90
33382;DHT22;21342;48.786;9.166;2022-07-01T04:01:58;16.80;99.90
33382;DHT22;21342;48.786;9.166;2022-07-01T04:04:26;16.60;99.90
33382;DHT22;21342;48.786;9.166;2022-07-01T04:06:56;16.80;99.90
33382;DHT22;21342;48.786;9.166;2022-07-01T04:09:24;17.00;99.90
33382;DHT22;21342;48.786;9.166;2022-07-01T04:11:52;17.50;99.90
33382;DHT22;21342;48.786;9.166;2022-07-01T04:14:21;17.50;99.90
33382;DHT22;21342;48.786;9.166;2022-07-01T04:16:50;17.00;99.90
33382;DHT22;21342;48.786;9.166;2022-07-01T04:19:17;16.80;99.90
33382;DHT22;21342;48.786;9.166;2022-07-01T04:21:45;16.70;99.90
33382;DHT22;21342;48.786;9.166;2022-07-01T04:24:29;16.50;99.90
33382;DHT22;21342;48.786;9.166;2022-07-01T04:26:58;16.70;99.90
33382;DHT22;21342;48.786;9.166;2022-07-01T04:29:27;16.50;99.90
33382;DHT22;21342;48.786;9.166;2022-07-01T04:31:56;16.30;99.90
33382;DHT22;21342;48.786;9.166;2022-07-01T04:34:23;16.50;99.90
33382;DHT22;21342;48.786;9.166;2022-07-01T04:36:50;16.30;99.90
33382;DHT22;21342;48.786;9.166;2022-07-01T04:39:18;16.30;99.90
33382;DHT22;21342;48.786;9.166;2022-07-01T04:41:45;16.10;99.90
33382;DHT22;21342;48.786;9.166;2022-07-01T04:44:30;15.90;99.90
33382;DHT22;21342;48.786;9.166;2022-07-01T04:46:58;15.70;99.90
33382;DHT22;21342;48.786;9.166;2022-07-01T04:49:25;15.60;99.90
33382;DHT22;21342;48.786;9.166;2022-07-01T04:51:53;15.70;99.90
33382;DHT22;21342;48.786;9.166;2022-07-01T04:54:20;15.80;99.90
33382;DHT22;21342;48.786;9.166;2022-07-01T04:56:47;15.80;99.90
33382;DHT22;21342;48.786;9.166;2022-07-01T04:59:15;16.10;99.90
33382;DHT22;21342;48.786;9.166;2022-07-01T05:01:44;15.90;99.90
33382;DHT22;21342;48.786;9.166;2022-07-01T05:04:15;16.50;99.90
33382;DHT22;21342;48.786;9.166;2022-07-01T05:06:42;16.30;99.90
33382;DHT22;21342;48.786;9.166;2022-07-01T05:09:09;16.40;99.90
33382;DHT22;21342;48.786;9.166;2022-07-01T05:11:37;16.10;99.90
33382;DHT22;21342;48.786;9.166;2022-07-01T05:14:04;16.30;99.90
33382;DHT22;21342;48.786;9.166;2022-07-01T05:16:32;15.90;99.90
33382;DHT22;21342;48.786;9.166;2022-07-01T05:19:01;15.80;99.90
33382;DHT22;21342;48.786;9.166;2022-07-01T05:21:49;15.60;99.90
33382;DHT22;21342;48.786;9.166;2022-07-01T05:24:23;15.80;99.90
33382;DHT22;21342;48.786;9.166;2022-07-01T05:26:50;15.60;99.90
33382;DHT22;21342;48.786;9.166;2022-07-01T05:29:17;15.50;99.90
33382;DHT22;21342;48.786;9.166;2022-07-01T05:31:45;15.50;99.90
33382;DHT22;21342;48.786;9.166;2022-07-01T05:34:13;15.70;99.90
33382;DHT22;21342;48.786;9.166;2022-07-01T05:36:41;15.70;99.90
33382;DHT22;21342;48.786;9.166;2022-07-01T05:39:08;15.50;99.90
33382;DHT22;21342;48.786;9.166;2022-07-01T05:41:35;15.50;99.90
33382;DHT22;21342;48.786;9.166;2022-07-01T05:44:03;15.60;99.90
33382;DHT22;21342;48.786;9.166;2022-07-01T05:46:30;15.70;99.90
33382;DHT22;21342;48.786;9.166;2022-07-01T05:48:57;15.70;99.90
33382;DHT22;21342;48.786;9.166;2022-07-01T05:51:26;15.70;99.90
33382;DHT22;21342;48.786;9.166;2022-07-01T05:53:53;15.70;99.90
33382;DHT22;21342;48.786;9.166;2022-07-01T05:56:21;16.20;99.90
33382;DHT22;21342;48.786;9.166;2022-07-01T05:58:49;16.10;99.90
33382;DHT22;21342;48.786;9.166;2022-07-01T06:01:16;16.20;99.90
33382;DHT22;21342;48.786;9.166;2022-07-01T06:03:43;15.90;99.90
33382;DHT22;21342;48.786;9.166;2022-07-01T06:06:10;15.90;99.90
33382;DHT22;21342;48.786;9.166;2022-07-01T06:08:39;15.90;99.90
33382;DHT22;21342;48.786;9.166;2022-07-01T06:11:06;16.10;99.90
33382;DHT22;21342;48.786;9.166;2022-07-01T06:13:34;16.30;99.90
33382;DHT22;21342;48.786;9.166;2022-07-01T06:16:01;16.00;99.90
33382;DHT22;21342;48.786;9.166;2022-07-01T06:18:28;15.90;99.90
33382;DHT22;21342;48.786;9.166;2022-07-01T06:20:55;15.80;99.90
33382;DHT22;21342;48.786;9.166;2022-07-01T06:23:23;15.90;99.90
33382;DHT22;21342;48.786;9.166;2022-07-01T06:25:51;16.40;99.90
33382;DHT22;21342;48.786;9.166;2022-07-01T06:28:18;16.20;99.90
33382;DHT22;21342;48.786;9.166;2022-07-01T06:30:46;16.10;99.90
33382;DHT22;21342;48.786;9.166;2022-07-01T06:33:13;16.00;99.90
33382;DHT22;21342;48.786;9.166;2022-07-01T06:35:40;16.30;99.90
33382;DHT22;21342;48.786;9.166;2022-07-01T06:38:08;16.50;99.90
33382;DHT22;21342;48.786;9.166;2022-07-01T06:40:35;16.30;99.90
33382;DHT22;21342;48.786;9.166;2022-07-01T06:43:04;16.60;99.90
33382;DHT22;21342;48.786;9.166;2022-07-01T06:45:31;16.50;99.90
33382;DHT22;21342;48.786;9.166;2022-07-01T06:47:58;16.30;99.90
33382;DHT22;21342;48.786;9.166;2022-07-01T06:50:25;16.40;99.90
33382;DHT22;21342;48.786;9.166;2022-07-01T06:52:53;16.50;99.90
33382;DHT22;21342;48.786;9.166;2022-07-01T06:55:20;16.60;99.90
33382;DHT22;21342;48.786;9.166;2022-07-01T06:57:47;16.80;99.90
33382;DHT22;21342;48.786;9.166;2022-07-01T07:00:16;16.70;99.90
33382;DHT22;21342;48.786;9.166;2022-07-01T07:02:43;16.80;99.90
33382;DHT22;21342;48.786;9.166;2022-07-01T07:05:11;16.50;99.90
33382;DHT22;21342;48.786;9.166;2022-07-01T07:07:38;16.30;99.90
33382;DHT22;21342;48.786;9.166;2022-07-01T07:10:06;16.20;99.90
33382;DHT22;21342;48.786;9.166;2022-07-01T07:12:34;16.30;99.90
33382;DHT22;21342;48.786;9.166;2022-07-01T07:15:01;16.20;99.90
33382;DHT22;21342;48.786;9.166;2022-07-01T07:17:30;16.10;99.90
33382;DHT22;21342;48.786;9.166;2022-07-01T07:19:58;15.90;99.90
33382;DHT22;21342;48.786;9.166;2022-07-01T07:22:28;15.90;99.90
33382;DHT22;21342;48.786;9.166;2022-07-01T07:24:55;16.10;99.90
33382;DHT22;21342;48.786;9.166;2022-07-01T07:27:22;16.30;99.90
33382;DHT22;21342;48.786;9.166;2022-07-01T07:29:49;16.70;99.90
33382;DHT22;21342;48.786;9.166;2022-07-01T07:32:17;16.50;99.90
33382;DHT22;21342;48.786;9.166;2022-07-01T07:34:45;16.90;99.90
33382;DHT22;21342;48.786;9.166;2022-07-01T07:37:12;16.70;99.90
33382;DHT22;21342;48.786;9.166;2022-07-01T07:39:40;16.80;99.90
33382;DHT22;21342;48.786;9.166;2022-07-01T07:42:07;16.60;99.90
33382;DHT22;21342;48.786;9.166;2022-07-01T07:44:34;16.70;99.90
33382;DHT22;21342;48.786;9.166;2022-07-01T07:47:01;16.50;99.90
33382;DHT22;21342;48.786;9.166;2022-07-01T07:49:29;16.40;99.90
33382;DHT22;21342;48.786;9.166;2022-07-01T07:51:57;16.40;99.90
33382;DHT22;21342;48.786;9.166;2022-07-01T07:54:24;16.10;99.90
33382;DHT22;21342;48.786;9.166;2022-07-01T07:56:52;16.20;99.90
33382;DHT22;21342;48.786;9.166;2022-07-01T07:59:19;16.40;99.90
33382;DHT22;21342;48.786;9.166;2022-07-01T08:01:46;16.40;99.90
33382;DHT22;21342;48.786;9.166;2022-07-01T08:04:13;16.30;99.90
33382;DHT22;21342;48.786;9.166;2022-07-01T08:06:40;16.40;99.90
33382;DHT22;21342;48.786;9.166;2022-07-01T08:09:09;16.10;99.90
33382;DHT22;21342;48.786;9.166;2022-07-01T08:11:36;16.40;99.90
33382;DHT22;21342;48.786;9.166;2022-07-01T08:14:04;16.50;99.90
33382;DHT22;21342;48.786;9.166;2022-07-01T08:16:31;16.50;99.90
33382;DHT22;21342;48.786;9.166;2022-07-01T08:18:58;16.50;99.90
33382;DHT22;21342;48.786;9.166;2022-07-01T08:21:25;16.60;99.90
33382;DHT22;21342;48.786;9.166;2022-07-01T08:23:52;16.50;99.90
33382;DHT22;21342;48.786;9.166;2022-07-01T08:26:21;16.90;99.90
33382;DHT22;21342;48.786;9.166;2022-07-01T08:28:49;17.20;99.90
33382;DHT22;21342;48.786;9.166;2022-07-01T08:31:16;16.80;99.90
33382;DHT22;21342;48.786;9.166;2022-07-01T08:33:43;16.80;99.90
33382;DHT22;21342;48.786;9.166;2022-07-01T08:36:10;16.40;99.90
33382;DHT22;21342;48.786;9.166;2022-07-01T08:38:39;16.90;99.90
33382;DHT22;21342;48.786;9.166;2022-07-01T08:41:07;16.80;99.90
33382;DHT22;21342;48.786;9.166;2022-07-01T08:43:36;16.60;99.90
33382;DHT22;21342;48.786;9.166;2022-07-01T08:46:04;16.50;99.90
33382;DHT22;21342;48.786;9.166;2022-07-01T08:48:31;16.60;99.90
33382;DHT22;21342;48.786;9.166;2022-07-01T08:50:58;16.50;99.90
33382;DHT22;21342;48.786;9.166;2022-07-01T08:53:30;16.50;99.90
33382;DHT22;21342;48.786;9.166;2022-07-01T08:55:57;16.50;99.90
33382;DHT22;21342;48.786;9.166;2022-07-01T08:58:43;16.50;99.90
33382;DHT22;21342;48.786;9.166;2022-07-01T09:01:13;16.40;99.90
33382;DHT22;21342;48.786;9.166;2022-07-01T09:03:40;17.00;99.90
33382;DHT22;21342;48.786;9.166;2022-07-01T09:06:12;16.80;99.90
33382;DHT22;21342;48.786;9.166;2022-07-01T09:08:40;16.70;99.90
33382;DHT22;21342;48.786;9.166;2022-07-01T09:11:12;16.60;99.90
33382;DHT22;21342;48.786;9.166;2022-07-01T09:13:39;16.80;99.90
33382;DHT22;21342;48.786;9.166;2022-07-01T09:16:12;16.70;99.90
33382;DHT22;21342;48.786;9.166;2022-07-01T09:18:40;16.80;99.90
33382;DHT22;21342;48.786;9.166;2022-07-01T09:21:13;16.90;99.90
33382;DHT22;21342;48.786;9.166;2022-07-01T09:23:43;17.00;99.90
33382;DHT22;21342;48.786;9.166;2022-07-01T09:26:18;16.90;99.90
33382;DHT22;21342;48.786;9.166;2022-07-01T09:28:53;17.10;99.90
33382;DHT22;21342;48.786;9.166;2022-07-01T09:31:22;17.20;99.90
33382;DHT22;21342;48.786;9.166;2022-07-01T09:34:03;17.40;99.90
33382;DHT22;21342;48.786;9.166;2022-07-01T09:36:30;17.10;99.90
33382;DHT22;21342;48.786;9.166;2022-07-01T09:39:02;16.90;99.90
33382;DHT22;21342;48.786;9.166;2022-07-01T09:41:35;17.10;99.90
33382;DHT22;21342;48.786;9.166;2022-07-01T09:44:06;16.70;99.90
33382;DHT22;21342;48.786;9.166;2022-07-01T09:46:35;16.50;99.90
33382;DHT22;21342;48.786;9.166;2022-07-01T09:49:03;16.40;99.90
33382;DHT22;21342;48.786;9.166;2022-07-01T09:51:30;16.80;99.90
33382;DHT22;21342;48.786;9.166;2022-07-01T09:53:57;17.10;99.90
33382;DHT22;21342;48.786;9.166;2022-07-01T09:56:25;17.50;99.90
33382;DHT22;21342;48.786;9.166;2022-07-01T09:58:52;17.30;99.90
33382;DHT22;21342;48.786;9.166;2022-07-01T10:01:19;17.50;99.90
33382;DHT22;21342;48.786;9.166;2022-07-01T10:03:49;17.40;99.90
33382;DHT22;21342;48.786;9.166;2022-07-01T10:06:42;17.50;99.90
33382;DHT22;21342;48.786;9.166;2022-07-01T10:09:24;17.40;99.90
33382;DHT22;21342;48.786;9.166;2022-07-01T10:14:54;17.10;99.90
33382;DHT22;21342;48.786;9.166;2022-07-01T10:17:29;16.90;99.90
33382;DHT22;21342;48.786;9.166;2022-07-01T10:20:08;16.70;99.90
33382;DHT22;21342;48.786;9.166;2022-07-01T10:22:37;16.80;99.90
33382;DHT22;21342;48.786;9.166;2022-07-01T10:25:31;16.80;99.90
33382;DHT22;21342;48.786;9.166;2022-07-01T10:28:21;17.20;99.90
33382;DHT22;21342;48.786;9.166;2022-07-01T10:30:59;17.40;99.90
33382;DHT22;21342;48.786;9.166;2022-07-01T10:33:33;17.50;99.90
33382;DHT22;21342;48.786;9.166;2022-07-01T10:36:13;17.70;99.90
33382;DHT22;21342;48.786;9.166;2022-07-01T10:39:13;17.70;99.90
33382;DHT22;21342;48.786;9.166;2022-07-01T10:42:03;17.70;99.90
33382;DHT22;21342;48.786;9.166;2022-07-01T10:44:31;18.40;99.90
33382;DHT22;21342;48.786;9.166;2022-07-01T10:47:05;18.20;99.90
33382;DHT22;21342;48.786;9.166;2022-07-01T10:49:52;18.20;99.90
33382;DHT22;21342;48.786;9.166;2022-07-01T10:52:21;18.70;99.90
33382;DHT22;21342;48.786;9.166;2022-07-01T10:54:51;19.10;99.90
33382;DHT22;21342;48.786;9.166;2022-07-01T10:57:28;19.20;99.90
33382;DHT22;21342;48.786;9.166;2022-07-01T11:02:39;18.60;99.90
33382;DHT22;21342;48.786;9.166;2022-07-01T11:05:10;18.70;99.90
33382;DHT22;21342;48.786;9.166;2022-07-01T11:07:40;18.90;99.90
33382;DHT22;21342;48.786;9.166;2022-07-01T11:10:09;19.30;99.90
33382;DHT22;21342;48.786;9.166;2022-07-01T11:12:37;19.10;99.90
33382;DHT22;21342;48.786;9.166;2022-07-01T11:15:06;19.30;99.90
33382;DHT22;21342;48.786;9.166;2022-07-01T11:17:41;19.10;99.90
33382;DHT22;21342;48.786;9.166;2022-07-01T11:20:09;18.80;99.90
33382;DHT22;21342;48.786;9.166;2022-07-01T11:22:38;18.80;99.90
33382;DHT22;21342;48.786;9.166;2022-07-01T11:25:07;18.90;99.90
33382;DHT22;21342;48.786;9.166;2022-07-01T11:27:35;18.30;99.90
33382;DHT22;21342;48.786;9.166;2022-07-01T11:30:05;18.60;99.90
33382;DHT22;21342;48.786;9.166;2022-07-01T11:32:36;18.90;99.90
33382;DHT22;21342;48.786;9.166;2022-07-01T11:35:05;18.40;99.90
33382;DHT22;21342;48.786;9.166;2022-07-01T11:38:04;18.60;99.90
33382;DHT22;21342;48.786;9.166;2022-07-01T11:40:49;19.20;99.90
33382;DHT22;21342;48.786;9.166;2022-07-01T11:43:20;20.20;99.90
33382;DHT22;21342;48.786;9.166;2022-07-01T11:45:48;21.00;99.90
33382;DHT22;21342;48.786;9.166;2022-07-01T11:48:31;20.90;99.90
33382;DHT22;21342;48.786;9.166;2022-07-01T11:50:59;20.80;99.90
33382;DHT22;21342;48.786;9.166;2022-07-01T11:53:28;21.00;99.90
33382;DHT22;21342;48.786;9.166;2022-07-01T11:55:55;21.50;99.90
33382;DHT22;21342;48.786;9.166;2022-07-01T11:58:22;22.20;99.90
33382;DHT22;21342;48.786;9.166;2022-07-01T12:00:49;22.10;99.90
33382;DHT22;21342;48.786;9.166;2022-07-01T12:03:30;21.80;99.90
33382;DHT22;21342;48.786;9.166;2022-07-01T12:05:57;21.50;99.90
33382;DHT22;21342;48.786;9.166;2022-07-01T12:08:25;21.10;99.90
33382;DHT22;21342;48.786;9.166;2022-07-01T12:10:54;21.40;99.90
33382;DHT22;21342;48.786;9.166;2022-07-01T12:13:26;21.20;99.90
33382;DHT22;21342;48.786;9.166;2022-07-01T12:15:53;21.50;99.90
33382;DHT22;21342;48.786;9.166;2022-07-01T12:18:20;21.70;99.90
33382;DHT22;21342;48.786;9.166;2022-07-01T12:20:49;21.30;99.90
33382;DHT22;21342;48.786;9.166;2022-07-01T12:23:17;21.50;99.90
33382;DHT22;21342;48.786;9.166;2022-07-01T12:25:51;21.90;99.90
33382;DHT22;21342;48.786;9.166;2022-07-01T12:28:29;22.10;99.90
33382;DHT22;21342;48.786;9.166;2022-07-01T12:31:04;22.20;99.90
33382;DHT22;21342;48.786;9.166;2022-07-01T12:33:34;22.20;99.90
33382;DHT22;21342;48.786;9.166;2022-07-01T12:36:02;22.00;99.90
33382;DHT22;21342;48.786;9.166;2022-07-01T12:38:30;22.00;99.90
33382;DHT22;21342;48.786;9.166;2022-07-01T12:40:57;21.70;99.90
33382;DHT22;21342;48.786;9.166;2022-07-01T12:43:26;21.50;99.90
33382;DHT22;21342;48.786;9.166;2022-07-01T12:45:58;21.10;99.90
33382;DHT22;21342;48.786;9.166;2022-07-01T12:48:26;21.70;99.90
33382;DHT22;21342;48.786;9.166;2022-07-01T12:50:55;21.80;99.90
33382;DHT22;21342;48.786;9.166;2022-07-01T12:53:24;21.80;99.90
33382;DHT22;21342;48.786;9.166;2022-07-01T12:55:53;21.80;99.90
33382;DHT22;21342;48.786;9.166;2022-07-01T12:58:22;21.80;99.90
33382;DHT22;21342;48.786;9.166;2022-07-01T13:00:50;21.80;99.90
33382;DHT22;21342;48.786;9.166;2022-07-01T13:03:21;21.50;99.90
33382;DHT22;21342;48.786;9.166;2022-07-01T13:05:49;21.90;99.90
33382;DHT22;21342;48.786;9.166;2022-07-01T13:08:17;22.00;99.90
33382;DHT22;21342;48.786;9.166;2022-07-01T13:10:46;22.10;99.90
33382;DHT22;21342;48.786;9.166;2022-07-01T13:13:13;22.20;99.90
33382;DHT22;21342;48.786;9.166;2022-07-01T13:15:42;22.30;99.90
33382;DHT22;21342;48.786;9.166;2022-07-01T13:18:11;22.00;99.90
33382;DHT22;21342;48.786;9.166;2022-07-01T13:20:41;21.80;99.90
33382;DHT22;21342;48.786;9.166;2022-07-01T13:23:09;21.30;99.90
33382;DHT22;21342;48.786;9.166;2022-07-01T13:25:36;21.30;99.90
33382;DHT22;21342;48.786;9.166;2022-07-01T13:28:04;20.80;99.90
33382;DHT22;21342;48.786;9.166;2022-07-01T13:30:32;20.90;99.90
33382;DHT22;21342;48.786;9.166;2022-07-01T13:33:01;20.80;99.90
33382;DHT22;21342;48.786;9.166;2022-07-01T13:35:28;21.00;99.90
33382;DHT22;21342;48.786;9.166;2022-07-01T13:37:57;20.90;99.90
33382;DHT22;21342;48.786;9.166;2022-07-01T13:40:24;20.50;99.90
33382;DHT22;21342;48.786;9.166;2022-07-01T13:42:51;20.20;99.90
33382;DHT22;21342;48.786;9.166;2022-07-01T13:45:18;20.60;99.90
33382;DHT22;21342;48.786;9.166;2022-07-01T13:47:45;20.60;99.90
33382;DHT22;21342;48.786;9.166;2022-07-01T13:50:12;21.00;99.90
33382;DHT22;21342;48.786;9.166;2022-07-01T13:52:44;21.00;99.90
33382;DHT22;21342;48.786;9.166;2022-07-01T13:55:13;20.60;99.90
33382;DHT22;21342;48.786;9.166;2022-07-01T13:57:40;19.90;99.90
33382;DHT22;21342;48.786;9.166;2022-07-01T14:00:08;20.10;99.90
33382;DHT22;21342;48.786;9.166;2022-07-01T14:02:36;20.20;99.90
33382;DHT22;21342;48.786;9.166;2022-07-01T14:05:03;20.80;99.90
33382;DHT22;21342;48.786;9.166;2022-07-01T14:07:31;20.60;99.90
33382;DHT22;21342;48.786;9.166;2022-07-01T14:09:58;20.20;99.90
33382;DHT22;21342;48.786;9.166;2022-07-01T14:12:27;20.70;99.90
33382;DHT22;21342;48.786;9.166;2022-07-01T14:14:55;21.10;99.90
33382;DHT22;21342;48.786;9.166;2022-07-01T14:17:22;21.30;99.90
33382;DHT22;21342;48.786;9.166;2022-07-01T14:19:49;21.00;99.90
33382;DHT22;21342;48.786;9.166;2022-07-01T14:22:16;20.80;99.90
33382;DHT22;21342;48.786;9.166;2022-07-01T14:24:44;21.20;99.90
33382;DHT22;21342;48.786;9.166;2022-07-01T14:27:11;21.20;99.90
33382;DHT22;21342;48.786;9.166;2022-07-01T14:29:40;21.40;99.90
33382;DHT22;21342;48.786;9.166;2022-07-01T14:32:07;21.50;99.90
33382;DHT22;21342;48.786;9.166;2022-07-01T14:34:35;21.40;99.90
33382;DHT22;21342;48.786;9.166;2022-07-01T14:37:02;20.90;99.90
33382;DHT22;21342;48.786;9.166;2022-07-01T14:39:29;20.70;99.90
33382;DHT22;21342;48.786;9.166;2022-07-01T14:41:56;20.80;99.90
33382;DHT22;21342;48.786;9.166;2022-07-01T14:44:24;21.00;99.90
33382;DHT22;21342;48.786;9.166;2022-07-01T14:46:52;21.30;99.90
33382;DHT22;21342;48.786;9.166;2022-07-01T14:49:22;21.20;99.90
33382;DHT22;21342;48.786;9.166;2022-07-01T14:51:50;21.60;99.90
33382;DHT22;21342;48.786;9.166;2022-07-01T14:54:17;21.10;99.90
33382;DHT22;21342;48.786;9.166;2022-07-01T14:56:45;20.80;99.90
33382;DHT22;21342;48.786;9.166;2022-07-01T14:59:12;21.40;99.90
33382;DHT22;21342;48.786;9.166;2022-07-01T15:01:39;21.80;99.90
33382;DHT22;21342;48.786;9.166;2022-07-01T15:04:08;21.60;99.90
33382;DHT22;21342;48.786;9.166;2022-07-01T15:06:35;21.40;99.90
33382;DHT22;21342;48.786;9.166;2022-07-01T15:09:03;20.80;99.90
33382;DHT22;21342;48.786;9.166;2022-07-01T15:11:30;20.30;99.90
33382;DHT22;21342;48.786;9.166;2022-07-01T15:13:59;20.70;99.90
33382;DHT22;21342;48.786;9.166;2022-07-01T15:16:26;21.40;99.90
33382;DHT22;21342;48.786;9.166;2022-07-01T15:18:53;21.80;99.90
33382;DHT22;21342;48.786;9.166;2022-07-01T15:21:22;21.80;99.90
33382;DHT22;21342;48.786;9.166;2022-07-01T15:23:50;20.90;99.90
33382;DHT22;21342;48.786;9.166;2022-07-01T15:26:18;21.00;99.90
33382;DHT22;21342;48.786;9.166;2022-07-01T15:28:45;21.30;99.90
33382;DHT22;21342;48.786;9.166;2022-07-01T15:31:12;21.20;99.90
33382;DHT22;21342;48.786;9.166;2022-07-01T15:33:39;21.00;99.90
33382;DHT22;21342;48.786;9.166;2022-07-01T15:36:07;20.20;99.90
33382;DHT22;21342;48.786;9.166;2022-07-01T15:38:36;20.10;99.90
33382;DHT22;21342;48.786;9.166;2022-07-01T15:41:03;20.40;99.90
33382;DHT22;21342;48.786;9.166;2022-07-01T15:43:32;20.50;99.90
33382;DHT22;21342;48.786;9.166;2022-07-01T15:45:59;21.00;99.90